Augusta, Maine
Current Conditions -  °F | °C
As of 3:53 AM on Friday 31 Oct 2014 (Local Time) from KAUG Reporting Station
Clear Clear  
Wind Chill:   Ceiling: Unl
Heat Index:   Visibility: 10mi
Dew Point: -2°   Wind: 6mph
Humidity: 76%   Direction: 300°WNW
Pressure: 30.01"   Gusts: NA
Location:  44.32°N, 69.78°W
Report Text: KAUG 310753Z AUTO 30005KT 10SM CLR 02/M02 A3001 RMK AO2 SLP165 T00221017
Loading
Personal Weather Stations






























Interactive Weather Map
Tropical Storm Tracking
New forecast layout! Learn more

10-Day Weather Forecast

Advertisements
Track Severe Weather on mobile